createdAt,value
2023-01-19T00:01:28.211Z,12.10
2023-01-19T00:04:15.499Z,11.30
2023-01-19T00:07:05.272Z,11.48
2023-01-19T00:09:52.526Z,11.77
2023-01-19T00:12:39.721Z,10.75
2023-01-19T00:15:28.073Z,12.18
2023-01-19T00:18:15.452Z,11.73
2023-01-19T00:21:02.789Z,10.65
2023-01-19T00:23:52.792Z,12.73
2023-01-19T00:26:42.846Z,10.07
2023-01-19T00:29:33.540Z,11.35
2023-01-19T00:32:20.720Z,11.85
2023-01-19T00:35:08.049Z,11.00
2023-01-19T00:37:57.616Z,11.48
2023-01-19T00:40:45.051Z,14.10
2023-01-19T00:43:32.304Z,12.38
2023-01-19T00:46:19.699Z,12.20
2023-01-19T00:49:07.033Z,10.82
2023-01-19T00:51:54.379Z,12.55
2023-01-19T00:54:41.669Z,11.70
2023-01-19T00:57:29.668Z,11.15
2023-01-19T01:00:19.957Z,12.40
2023-01-19T01:03:07.459Z,11.87
2023-01-19T01:05:54.899Z,9.23
2023-01-19T01:08:42.258Z,13.02
2023-01-19T01:11:29.492Z,12.90
2023-01-19T01:14:17.277Z,12.68
2023-01-19T01:17:04.819Z,11.85
2023-01-19T01:19:52.708Z,13.45
2023-01-19T01:22:40.731Z,12.70
2023-01-19T01:25:28.737Z,11.35
2023-01-19T01:28:16.006Z,12.45
2023-01-19T01:31:03.183Z,12.23
2023-01-19T01:33:50.465Z,11.70
2023-01-19T01:36:37.757Z,11.88
2023-01-19T01:39:25.042Z,12.10
2023-01-19T01:42:24.627Z,10.45
2023-01-19T01:45:35.022Z,10.25
2023-01-19T01:48:30.488Z,10.80
2023-01-19T01:51:49.990Z,11.30
2023-01-19T01:54:37.278Z,10.50
2023-01-19T01:57:28.140Z,10.60
2023-01-19T02:00:16.266Z,9.50
2023-01-19T02:03:03.991Z,10.75
2023-01-19T02:05:54.841Z,10.55
2023-01-19T02:09:20.882Z,9.35
2023-01-19T02:12:27.264Z,8.98
2023-01-19T02:15:16.708Z,9.77
2023-01-19T02:18:04.167Z,9.98
2023-01-19T02:20:55.903Z,9.75
2023-01-19T02:23:50.475Z,9.80
2023-01-19T02:26:44.775Z,10.57
2023-01-19T02:29:32.638Z,9.57
2023-01-19T02:32:20.039Z,8.75
2023-01-19T02:35:07.720Z,9.30
2023-01-19T02:37:55.204Z,9.45
2023-01-19T02:40:44.842Z,10.32
2023-01-19T02:43:35.481Z,10.30
2023-01-19T02:46:22.967Z,10.98
2023-01-19T02:49:10.765Z,9.15
2023-01-19T02:51:59.205Z,9.90
2023-01-19T02:55:13.203Z,10.05
2023-01-19T02:58:30.492Z,9.95
2023-01-19T03:01:59.511Z,10.65
2023-01-19T03:05:23.059Z,8.73
2023-01-19T03:08:21.402Z,9.13
2023-01-19T03:11:11.363Z,9.35
2023-01-19T03:14:23.782Z,9.38
2023-01-19T03:17:13.054Z,10.00
2023-01-19T03:20:00.341Z,9.13
2023-01-19T03:22:51.258Z,10.88
2023-01-19T03:25:43.346Z,10.32
2023-01-19T03:28:32.689Z,9.80
2023-01-19T03:31:24.422Z,10.80
2023-01-19T03:34:15.242Z,10.52
2023-01-19T03:37:04.698Z,9.90
2023-01-19T03:39:52.016Z,11.10
2023-01-19T03:42:41.299Z,11.57
2023-01-19T03:45:30.852Z,11.73
2023-01-19T03:48:19.015Z,10.15
2023-01-19T03:51:09.014Z,12.77
2023-01-19T03:53:56.174Z,13.38
2023-01-19T03:56:44.655Z,11.00
2023-01-19T03:59:31.925Z,10.18
2023-01-19T04:02:25.002Z,11.00
2023-01-19T04:05:12.283Z,10.73
2023-01-19T04:07:59.591Z,11.13
2023-01-19T04:10:46.924Z,10.73
2023-01-19T04:13:35.551Z,10.90
2023-01-19T04:16:23.552Z,11.45
2023-01-19T04:19:10.790Z,11.93
2023-01-19T04:21:58.990Z,10.80
2023-01-19T04:24:46.352Z,11.27
2023-01-19T04:27:33.531Z,11.32
2023-01-19T04:30:22.639Z,11.00
2023-01-19T04:33:09.865Z,12.30
2023-01-19T04:35:57.242Z,13.27
2023-01-19T04:38:46.660Z,11.90
2023-01-19T04:41:33.835Z,12.05
2023-01-19T04:44:21.029Z,13.90
2023-01-19T04:47:08.596Z,12.65
2023-01-19T04:49:56.081Z,14.40
2023-01-19T04:52:43.528Z,14.27
2023-01-19T04:55:30.825Z,12.55
2023-01-19T04:58:18.149Z,14.27
2023-01-19T05:01:10.082Z,14.15
2023-01-19T05:04:00.937Z,12.88
2023-01-19T05:06:48.635Z,13.05
2023-01-19T05:09:35.827Z,13.10
2023-01-19T05:12:23.373Z,11.68
2023-01-19T05:15:11.413Z,12.57
2023-01-19T05:17:58.665Z,11.63
2023-01-19T05:20:47.008Z,12.18
2023-01-19T05:23:34.524Z,13.52
2023-01-19T05:26:21.692Z,11.43
2023-01-19T05:29:10.359Z,12.13
2023-01-19T05:31:58.211Z,12.38
2023-01-19T05:34:45.334Z,11.10
2023-01-19T05:37:32.853Z,13.48
2023-01-19T05:40:20.252Z,13.82
2023-01-19T05:43:07.374Z,14.48
2023-01-19T05:45:54.840Z,13.77
2023-01-19T05:48:42.121Z,12.18
2023-01-19T05:51:34.864Z,11.93
2023-01-19T05:54:21.931Z,10.38
2023-01-19T05:57:09.324Z,11.15
2023-01-19T05:59:56.321Z,10.27
2023-01-19T06:02:43.806Z,10.95
2023-01-19T06:05:31.057Z,11.55
2023-01-19T06:08:18.718Z,10.90
2023-01-19T06:11:07.389Z,12.05
2023-01-19T06:13:54.494Z,12.02
2023-01-19T06:16:41.851Z,11.02
2023-01-19T06:19:29.035Z,10.57
2023-01-19T06:22:16.090Z,12.45
2023-01-19T06:25:03.360Z,11.50
2023-01-19T06:27:50.438Z,11.88
2023-01-19T06:30:37.689Z,11.18
2023-01-19T06:33:25.598Z,10.88
2023-01-19T06:36:12.753Z,11.15
2023-01-19T06:39:03.175Z,10.13
2023-01-19T06:41:50.800Z,10.88
2023-01-19T06:44:38.093Z,10.15
2023-01-19T06:47:25.236Z,12.70
2023-01-19T06:50:13.418Z,11.10
2023-01-19T06:53:01.041Z,11.32
2023-01-19T06:55:48.853Z,10.98
2023-01-19T06:58:36.113Z,10.57
2023-01-19T07:01:23.463Z,10.20
2023-01-19T07:04:14.051Z,12.75
2023-01-19T07:07:01.580Z,11.18
2023-01-19T07:09:49.076Z,9.35
2023-01-19T07:12:39.726Z,9.38
2023-01-19T07:15:27.900Z,13.50
2023-01-19T07:18:15.264Z,10.48
2023-01-19T07:21:03.170Z,9.75
2023-01-19T07:23:51.960Z,8.73
2023-01-19T07:26:39.078Z,8.80
2023-01-19T07:29:26.605Z,8.98
2023-01-19T07:32:14.670Z,8.00
2023-01-19T07:35:01.972Z,7.85
2023-01-19T07:37:49.376Z,7.88
2023-01-19T07:40:36.541Z,8.02
2023-01-19T07:43:24.726Z,8.23
2023-01-19T07:46:11.998Z,9.20
2023-01-19T07:48:59.245Z,8.32
2023-01-19T07:51:46.714Z,9.88
2023-01-19T07:54:33.883Z,8.75
2023-01-19T07:57:21.454Z,9.43
2023-01-19T08:00:09.235Z,9.50
2023-01-19T08:03:03.477Z,9.18
2023-01-19T08:05:53.072Z,9.90
2023-01-19T08:08:40.187Z,11.18
2023-01-19T08:11:27.507Z,9.00
2023-01-19T08:14:14.567Z,10.00
2023-01-19T08:17:03.355Z,9.55
2023-01-19T08:19:50.491Z,9.07
2023-01-19T08:22:37.814Z,10.75
2023-01-19T08:25:27.035Z,8.95
2023-01-19T08:28:16.831Z,10.10
2023-01-19T08:31:19.001Z,8.75
2023-01-19T08:34:08.429Z,9.20
2023-01-19T08:36:55.448Z,10.27
2023-01-19T08:39:42.450Z,9.75
2023-01-19T08:42:30.904Z,9.52
2023-01-19T08:45:18.112Z,9.90
2023-01-19T08:48:06.525Z,8.55
2023-01-19T08:50:53.871Z,9.50
2023-01-19T08:53:42.956Z,11.05
2023-01-19T08:56:30.210Z,11.65
2023-01-19T08:59:17.447Z,12.15
2023-01-19T09:02:04.575Z,7.82
2023-01-19T09:04:51.899Z,10.73
2023-01-19T09:07:39.502Z,9.25
2023-01-19T09:10:26.567Z,9.60
2023-01-19T09:13:14.017Z,9.32
2023-01-19T09:16:03.827Z,9.73
2023-01-19T09:18:51.016Z,7.05
2023-01-19T09:21:38.467Z,9.38
2023-01-19T09:24:25.636Z,8.85
2023-01-19T09:27:12.640Z,10.48
2023-01-19T09:29:59.851Z,11.10
2023-01-19T09:32:47.189Z,10.57
2023-01-19T09:35:34.897Z,9.15
2023-01-19T09:38:23.341Z,10.77
2023-01-19T09:41:20.675Z,9.88
2023-01-19T09:44:16.954Z,8.15
2023-01-19T09:47:14.664Z,8.68
2023-01-19T09:50:12.730Z,9.48
2023-01-19T09:53:14.140Z,10.82
2023-01-19T09:58:52.321Z,7.35
2023-01-19T10:01:53.242Z,7.97
2023-01-19T10:05:02.355Z,8.18
2023-01-19T10:08:31.069Z,7.43
2023-01-19T10:11:51.638Z,7.35
2023-01-19T10:14:48.386Z,6.68
2023-01-19T10:17:51.672Z,6.35
2023-01-19T10:20:44.686Z,6.60
2023-01-19T10:23:54.947Z,6.13
2023-01-19T10:26:54.910Z,5.90
2023-01-19T10:29:42.215Z,6.47
2023-01-19T10:32:34.009Z,6.35
2023-01-19T10:35:24.973Z,6.03
2023-01-19T10:38:15.122Z,6.20
2023-01-19T10:41:07.381Z,6.85
2023-01-19T10:44:03.407Z,6.65
2023-01-19T10:46:51.353Z,6.32
2023-01-19T10:50:24.402Z,7.43
2023-01-19T10:53:22.732Z,6.63
2023-01-19T10:56:34.798Z,7.50
2023-01-19T10:59:31.178Z,7.22
2023-01-19T11:02:27.714Z,7.45
2023-01-19T11:05:25.217Z,7.50
2023-01-19T11:08:29.904Z,8.48
2023-01-19T11:11:18.695Z,6.90
2023-01-19T11:14:14.900Z,7.20
2023-01-19T11:17:02.240Z,7.63
2023-01-19T11:19:56.301Z,7.45
2023-01-19T11:22:43.812Z,7.55
2023-01-19T11:25:34.270Z,7.22
2023-01-19T11:28:49.066Z,7.07
2023-01-19T11:31:36.467Z,6.85
2023-01-19T11:34:23.524Z,7.55
2023-01-19T11:37:17.099Z,7.32
2023-01-19T11:40:08.671Z,6.80
2023-01-19T11:42:55.858Z,7.47
2023-01-19T11:45:45.827Z,7.40
2023-01-19T11:48:39.487Z,7.22
2023-01-19T11:51:30.663Z,8.02
2023-01-19T11:54:27.959Z,7.88
2023-01-19T11:57:17.153Z,7.25
2023-01-19T12:00:24.094Z,8.10
2023-01-19T12:03:23.433Z,7.68
2023-01-19T12:06:14.464Z,8.85
2023-01-19T12:09:03.124Z,8.32
2023-01-19T12:12:04.117Z,8.32
2023-01-19T12:15:02.202Z,7.85
2023-01-19T12:17:51.693Z,7.68
2023-01-19T12:20:46.942Z,8.30
2023-01-19T12:23:54.397Z,8.30
2023-01-19T12:26:57.213Z,8.40
2023-01-19T12:29:46.326Z,7.93
2023-01-19T12:32:36.892Z,8.30
2023-01-19T12:35:56.087Z,8.02
2023-01-19T12:38:57.431Z,8.25
2023-01-19T12:41:45.805Z,9.10
2023-01-19T12:44:34.378Z,7.38
2023-01-19T12:47:24.147Z,7.72
2023-01-19T12:50:19.149Z,8.80
2023-01-19T12:53:18.678Z,10.32
2023-01-19T12:56:09.997Z,7.85
2023-01-19T13:01:44.342Z,7.53
2023-01-19T13:04:33.534Z,8.55
2023-01-19T13:07:20.786Z,8.02
2023-01-19T13:10:45.636Z,9.98
2023-01-19T13:13:36.344Z,8.27
2023-01-19T13:16:27.393Z,8.60
2023-01-19T13:19:18.212Z,7.75
2023-01-19T13:22:42.785Z,7.35
2023-01-19T13:25:34.168Z,6.80
2023-01-19T13:28:32.627Z,7.78
2023-01-19T13:31:20.411Z,7.95
2023-01-19T13:34:14.351Z,7.50
2023-01-19T13:37:02.161Z,8.13
2023-01-19T13:39:53.106Z,7.60
2023-01-19T13:42:42.843Z,7.05
2023-01-19T13:45:34.089Z,7.15
2023-01-19T13:48:22.830Z,6.60
2023-01-19T13:51:18.710Z,6.03
2023-01-19T13:54:14.224Z,6.30
2023-01-19T13:57:01.324Z,6.82
2023-01-19T14:00:14.314Z,6.78
2023-01-19T14:03:18.533Z,5.97
2023-01-19T14:06:06.018Z,5.65
2023-01-19T14:09:08.960Z,8.55
2023-01-19T14:12:15.630Z,7.82
2023-01-19T14:15:05.314Z,7.70
2023-01-19T14:18:14.422Z,5.72
2023-01-19T14:21:03.455Z,6.25
2023-01-19T14:24:05.689Z,6.55
2023-01-19T14:26:54.655Z,5.97
2023-01-19T14:29:42.623Z,6.75
2023-01-19T14:32:29.725Z,6.13
2023-01-19T14:35:26.076Z,6.15
2023-01-19T14:38:14.688Z,6.35
2023-01-19T14:41:01.734Z,5.32
2023-01-19T14:43:48.973Z,6.30
2023-01-19T14:46:36.556Z,6.47
2023-01-19T14:49:47.245Z,6.88
2023-01-19T14:52:39.610Z,6.73
2023-01-19T14:55:48.873Z,6.20
2023-01-19T14:58:36.470Z,6.90
2023-01-19T15:01:25.325Z,6.75
2023-01-19T15:04:12.695Z,7.85
2023-01-19T15:06:59.848Z,7.28
2023-01-19T15:09:47.972Z,7.00
2023-01-19T15:12:35.257Z,6.60
2023-01-19T15:15:31.895Z,7.47
2023-01-19T15:18:27.142Z,8.07
2023-01-19T15:21:23.637Z,7.97
2023-01-19T15:24:11.935Z,7.57
2023-01-19T15:27:01.907Z,7.43
2023-01-19T15:29:49.111Z,7.43
2023-01-19T15:32:36.310Z,7.50
2023-01-19T15:35:24.206Z,7.78
2023-01-19T15:38:11.351Z,8.07
2023-01-19T15:40:59.021Z,8.15
2023-01-19T15:43:47.941Z,8.20
2023-01-19T15:46:35.007Z,8.00
2023-01-19T15:49:23.279Z,8.48
2023-01-19T15:52:10.355Z,7.25
2023-01-19T15:54:57.368Z,7.88
2023-01-19T15:57:44.485Z,8.07
2023-01-19T16:00:33.743Z,8.02
2023-01-19T16:03:20.736Z,8.63
2023-01-19T16:06:09.085Z,9.40
2023-01-19T16:09:00.956Z,8.82
2023-01-19T16:11:48.317Z,8.52
2023-01-19T16:14:35.507Z,8.82
2023-01-19T16:17:22.851Z,7.70
2023-01-19T16:20:14.477Z,7.80
2023-01-19T16:23:14.377Z,7.82
2023-01-19T16:26:07.830Z,8.13
2023-01-19T16:28:59.972Z,7.93
2023-01-19T16:31:47.375Z,7.15
2023-01-19T16:34:34.483Z,8.60
2023-01-19T16:37:21.557Z,7.50
2023-01-19T16:40:09.599Z,8.32
2023-01-19T16:42:57.826Z,7.47
2023-01-19T16:46:02.453Z,8.95
2023-01-19T16:48:50.858Z,8.40
2023-01-19T16:51:38.272Z,8.23
2023-01-19T16:54:26.715Z,10.63
2023-01-19T16:57:15.157Z,7.45
2023-01-19T17:00:04.207Z,8.32
2023-01-19T17:02:53.683Z,9.52
2023-01-19T17:05:40.865Z,8.35
2023-01-19T17:08:27.906Z,7.15
2023-01-19T17:11:20.920Z,7.82
2023-01-19T17:14:11.751Z,7.03
2023-01-19T17:17:01.577Z,8.80
2023-01-19T17:19:48.777Z,8.73
2023-01-19T17:22:36.007Z,7.97
2023-01-19T17:25:23.385Z,7.35
2023-01-19T17:28:10.671Z,7.65
2023-01-19T17:31:05.966Z,7.53
2023-01-19T17:33:53.233Z,6.50
2023-01-19T17:36:40.936Z,6.00
2023-01-19T17:39:28.143Z,7.75
2023-01-19T17:42:15.235Z,7.47
2023-01-19T17:45:02.188Z,7.50
2023-01-19T17:47:50.505Z,7.78
2023-01-19T17:50:37.683Z,6.35
2023-01-19T17:53:24.699Z,5.07
2023-01-19T17:56:17.220Z,6.72
2023-01-19T17:59:06.658Z,7.07
2023-01-19T18:01:54.758Z,7.32
2023-01-19T18:04:42.133Z,6.95
2023-01-19T18:07:30.109Z,5.72
2023-01-19T18:10:17.427Z,7.18
2023-01-19T18:13:04.545Z,8.25
2023-01-19T18:15:52.131Z,7.55
2023-01-19T18:18:39.540Z,7.18
2023-01-19T18:21:30.653Z,7.78
2023-01-19T18:27:05.053Z,6.38
2023-01-19T18:29:52.140Z,6.88
2023-01-19T18:32:39.266Z,7.15
2023-01-19T18:35:26.629Z,9.23
2023-01-19T18:38:14.318Z,8.05
2023-01-19T18:41:13.132Z,6.78
2023-01-19T18:44:00.355Z,7.25
2023-01-19T18:46:48.124Z,7.50
2023-01-19T18:49:36.016Z,7.30
2023-01-19T18:52:23.439Z,8.20
2023-01-19T18:55:11.236Z,7.47
2023-01-19T18:57:58.811Z,7.22
2023-01-19T19:00:46.255Z,7.70
2023-01-19T19:03:33.662Z,7.80
2023-01-19T19:06:21.692Z,7.57
2023-01-19T19:09:09.294Z,7.57
2023-01-19T19:11:56.493Z,7.38
2023-01-19T19:14:44.243Z,7.38
2023-01-19T19:17:31.645Z,7.40
2023-01-19T19:20:19.589Z,9.98
2023-01-19T19:23:06.870Z,7.95
2023-01-19T19:25:54.061Z,8.43
2023-01-19T19:28:41.476Z,9.18
2023-01-19T19:31:30.148Z,9.57
2023-01-19T19:34:17.384Z,8.65
2023-01-19T19:37:04.447Z,8.55
2023-01-19T19:39:51.680Z,8.23
2023-01-19T19:42:39.189Z,8.40
2023-01-19T19:45:26.960Z,10.07
2023-01-19T19:48:14.224Z,6.82
2023-01-19T19:51:19.095Z,7.63
2023-01-19T19:54:06.710Z,7.38
2023-01-19T19:56:57.108Z,8.57
2023-01-19T19:59:44.299Z,8.32
2023-01-19T20:02:31.904Z,8.68
2023-01-19T20:05:19.282Z,7.38
2023-01-19T20:08:06.497Z,8.43
2023-01-19T20:10:53.957Z,8.05
2023-01-19T20:13:42.825Z,7.40
2023-01-19T20:16:30.020Z,7.82
2023-01-19T20:19:18.204Z,8.52
2023-01-19T20:22:05.567Z,7.57
2023-01-19T20:24:52.895Z,7.90
2023-01-19T20:27:40.504Z,8.60
2023-01-19T20:30:28.388Z,8.73
2023-01-19T20:33:15.938Z,8.13
2023-01-19T20:36:03.632Z,7.72
2023-01-19T20:38:51.804Z,6.03
2023-01-19T20:41:43.654Z,7.80
2023-01-19T20:44:30.924Z,5.45
2023-01-19T20:47:18.306Z,8.02
2023-01-19T20:50:06.379Z,7.97
2023-01-19T20:52:53.462Z,7.38
2023-01-19T20:55:40.712Z,7.75
2023-01-19T20:58:27.871Z,7.85
2023-01-19T21:01:23.395Z,8.07
2023-01-19T21:04:11.307Z,7.15
2023-01-19T21:06:58.399Z,8.80
2023-01-19T21:09:45.819Z,8.52
2023-01-19T21:12:33.005Z,7.60
2023-01-19T21:15:20.368Z,9.20
2023-01-19T21:18:07.500Z,7.88
2023-01-19T21:20:57.819Z,7.72
2023-01-19T21:23:47.308Z,8.27
2023-01-19T21:26:35.817Z,8.57
2023-01-19T21:29:23.036Z,8.05
2023-01-19T21:32:10.376Z,8.63
2023-01-19T21:34:57.938Z,9.27
2023-01-19T21:37:45.761Z,9.48
2023-01-19T21:40:33.996Z,9.77
2023-01-19T21:43:21.955Z,9.73
2023-01-19T21:46:19.766Z,9.38
2023-01-19T21:49:13.559Z,9.45
2023-01-19T21:52:02.730Z,9.77
2023-01-19T21:54:51.201Z,9.60
2023-01-19T21:57:44.942Z,9.27
2023-01-19T22:00:33.580Z,9.00
2023-01-19T22:03:21.412Z,9.65
2023-01-19T22:06:15.853Z,9.25
2023-01-19T22:09:03.862Z,10.18
2023-01-19T22:11:54.242Z,9.25
2023-01-19T22:14:42.296Z,9.23
2023-01-19T22:17:30.989Z,9.15
2023-01-19T22:20:18.795Z,9.73
2023-01-19T22:23:06.477Z,9.25
2023-01-19T22:25:54.599Z,9.85
2023-01-19T22:28:42.469Z,8.88
2023-01-19T22:31:31.114Z,9.68
2023-01-19T22:34:18.511Z,9.57
2023-01-19T22:37:06.429Z,10.52
2023-01-19T22:39:54.318Z,9.48
2023-01-19T22:42:46.993Z,9.23
2023-01-19T22:45:34.362Z,9.68
2023-01-19T22:48:23.396Z,9.20
2023-01-19T22:51:10.944Z,9.18
2023-01-19T22:53:58.491Z,9.73
2023-01-19T22:56:46.163Z,9.50
2023-01-19T22:59:33.337Z,9.10
2023-01-19T23:02:21.008Z,9.05
2023-01-19T23:05:08.727Z,9.77
2023-01-19T23:07:56.404Z,10.13
2023-01-19T23:10:46.369Z,10.02
2023-01-19T23:13:49.996Z,9.73
2023-01-19T23:16:41.046Z,9.70
2023-01-19T23:19:28.687Z,9.48
2023-01-19T23:22:16.565Z,10.40
2023-01-19T23:25:04.561Z,10.38
2023-01-19T23:27:52.284Z,10.18
2023-01-19T23:30:39.697Z,9.90
2023-01-19T23:33:27.291Z,10.35
2023-01-19T23:36:16.675Z,11.27
2023-01-19T23:39:10.091Z,10.88
2023-01-19T23:41:57.559Z,10.65
2023-01-19T23:44:44.848Z,11.15
2023-01-19T23:50:40.641Z,9.15
2023-01-19T23:53:28.098Z,10.68
2023-01-19T23:56:30.470Z,9.98
2023-01-19T23:59:17.797Z,10.63
